Shoal Cove, Canada
Current Conditions -  °F | °C
As of 7:00 PM on Tuesday 25 Nov 2014 (Local Time) from CYBX Reporting Station
Broken Clouds Broken Clouds  
Wind Chill: 30°   Ceiling: 3000
Heat Index: 39°   Visibility: 15mi
Dew Point: 36°   Wind: 18mph
Humidity: 87%   Direction: 220°SW
Pressure: 29.31"   Gusts: 24mph
Location:  51.02°N, 57.02°W
Report Text: CYBX 252200Z 22016G21KT 15SM BKN030 04/02 A2931 RMK SC6 SLP927
Loading
Personal Weather Stations






























Interactive Weather Map New forecast layout! Learn more

10-Day Weather Forecast

Advertisements
Track Severe Weather on mobile